createdAt,value
2023-03-13T00:01:37.621Z,99120.59
2023-03-13T00:04:06.471Z,99118.13
2023-03-13T00:06:37.687Z,99123.91
2023-03-13T00:09:10.679Z,99115.09
2023-03-13T00:11:39.755Z,99105.19
2023-03-13T00:14:09.915Z,99098.31
2023-03-13T00:16:39.757Z,99101.91
2023-03-13T00:19:09.442Z,99094.44
2023-03-13T00:21:38.723Z,99090.88
2023-03-13T00:24:12.262Z,99087.31
2023-03-13T00:26:40.687Z,99090.06
2023-03-13T00:29:09.253Z,99087.56
2023-03-13T00:31:37.707Z,99085.09
2023-03-13T00:34:06.703Z,99060.59
2023-03-13T00:36:36.718Z,99068.34
2023-03-13T00:39:07.746Z,99065.84
2023-03-13T00:41:37.692Z,99064.47
2023-03-13T00:44:06.194Z,99065.31
2023-03-13T00:46:34.763Z,99061.72
2023-03-13T00:49:03.551Z,99060.94
2023-03-13T00:51:32.717Z,99053.50
2023-03-13T00:54:01.620Z,99057.91
2023-03-13T00:56:31.532Z,99052.44
2023-03-13T00:59:02.444Z,99053.03
2023-03-13T01:01:33.135Z,99052.22
2023-03-13T01:04:04.364Z,99054.19
2023-03-13T01:06:35.876Z,99056.94
2023-03-13T01:09:06.556Z,99049.53
2023-03-13T01:11:40.100Z,99055.59
2023-03-13T01:14:11.276Z,99044.03
2023-03-13T01:16:40.332Z,99045.97
2023-03-13T01:19:13.116Z,99032.50
2023-03-13T01:21:42.663Z,99039.94
2023-03-13T01:24:11.464Z,99034.19
2023-03-13T01:26:41.522Z,99030.06
2023-03-13T01:29:09.992Z,99025.94
2023-03-13T01:31:39.130Z,99024.03
2023-03-13T01:34:08.205Z,99019.91
2023-03-13T01:36:38.273Z,99019.63
2023-03-13T01:39:08.107Z,99018.25
2023-03-13T01:41:38.397Z,99016.91
2023-03-13T01:44:20.879Z,99023.22
2023-03-13T01:46:49.506Z,99022.16
2023-03-13T01:49:23.470Z,99019.41
2023-03-13T01:51:55.167Z,99025.75
2023-03-13T01:54:27.411Z,99027.41
2023-03-13T01:57:02.651Z,99020.00
2023-03-13T01:59:36.230Z,99022.75
2023-03-13T02:02:06.165Z,99029.59
2023-03-13T02:04:40.768Z,99018.66
2023-03-13T02:07:13.540Z,99020.28
2023-03-13T02:09:46.501Z,99018.34
2023-03-13T02:12:19.513Z,99022.47
2023-03-13T02:14:52.662Z,99020.56
2023-03-13T02:17:21.410Z,99018.94
2023-03-13T02:19:52.380Z,99020.03
2023-03-13T02:22:30.119Z,99027.72
2023-03-13T02:25:10.831Z,99022.47
2023-03-13T02:27:42.236Z,99026.34
2023-03-13T02:30:13.529Z,99028.53
2023-03-13T02:32:42.337Z,99023.84
2023-03-13T02:35:14.644Z,99016.69
2023-03-13T02:37:45.801Z,99015.88
2023-03-13T02:40:19.306Z,99023.28
2023-03-13T02:42:50.269Z,99024.38
2023-03-13T02:45:20.045Z,99024.13
2023-03-13T02:47:48.448Z,99016.41
2023-03-13T02:50:17.664Z,99027.41
2023-03-13T02:52:50.662Z,99030.44
2023-03-13T02:55:23.976Z,99036.22
2023-03-13T02:57:53.807Z,99040.34
2023-03-13T03:00:26.703Z,99035.13
2023-03-13T03:02:56.278Z,99018.63
2023-03-13T03:05:24.901Z,99024.13
2023-03-13T03:07:53.584Z,99029.63
2023-03-13T03:10:22.344Z,99032.09
2023-03-13T03:12:50.759Z,99028.25
2023-03-13T03:15:21.101Z,99030.16
2023-03-13T03:17:49.479Z,99036.19
2023-03-13T03:20:18.005Z,99033.16
2023-03-13T03:22:46.530Z,99034.81
2023-03-13T03:25:16.044Z,99023.81
2023-03-13T03:27:44.492Z,99027.94
2023-03-13T03:30:14.062Z,99031.53
2023-03-13T03:32:44.025Z,99034.81
2023-03-13T03:35:12.607Z,99033.44
2023-03-13T03:37:41.103Z,99042.22
2023-03-13T03:40:11.165Z,99035.59
2023-03-13T03:42:39.619Z,99034.50
2023-03-13T03:45:09.822Z,99033.44
2023-03-13T03:47:38.262Z,99032.59
2023-03-13T03:50:11.099Z,99036.97
2023-03-13T03:52:40.053Z,99036.97
2023-03-13T03:55:09.756Z,99037.81
2023-03-13T03:57:38.202Z,99034.22
2023-03-13T04:00:14.112Z,99032.59
2023-03-13T04:02:42.647Z,99032.59
2023-03-13T04:05:12.750Z,99037.81
2023-03-13T04:07:41.176Z,99041.09
2023-03-13T04:10:11.515Z,99042.75
2023-03-13T04:12:39.996Z,99045.75
2023-03-13T04:15:10.084Z,99041.91
2023-03-13T04:17:38.610Z,99038.88
2023-03-13T04:20:08.692Z,99033.09
2023-03-13T04:22:38.491Z,99025.94
2023-03-13T04:25:08.476Z,99030.09
2023-03-13T04:27:36.916Z,99038.63
2023-03-13T04:30:07.266Z,99022.97
2023-03-13T04:32:35.716Z,99017.19
2023-03-13T04:35:04.451Z,99016.09
2023-03-13T04:37:32.962Z,99015.56
2023-03-13T04:40:03.037Z,99013.91
2023-03-13T04:42:31.499Z,99008.41
2023-03-13T04:44:59.903Z,99004.00
2023-03-13T04:47:28.447Z,99007.56
2023-03-13T04:49:58.235Z,98999.59
2023-03-13T04:52:26.740Z,98994.41
2023-03-13T04:54:55.421Z,99004.84
2023-03-13T04:57:25.322Z,98998.53
2023-03-13T04:59:53.747Z,98999.63
2023-03-13T05:02:22.196Z,98998.81
2023-03-13T05:04:52.219Z,98988.91
2023-03-13T05:07:20.777Z,98982.56
2023-03-13T05:09:49.187Z,98983.41
2023-03-13T05:12:17.627Z,98981.75
2023-03-13T05:14:47.460Z,98983.69
2023-03-13T05:17:15.900Z,98976.53
2023-03-13T05:19:44.391Z,98982.88
2023-03-13T05:22:12.921Z,98987.53
2023-03-13T05:24:42.026Z,98993.31
2023-03-13T05:27:10.622Z,98985.63
2023-03-13T05:29:39.373Z,98982.63
2023-03-13T05:32:09.485Z,98982.34
2023-03-13T05:34:37.856Z,98977.34
2023-03-13T05:37:06.392Z,98972.97
2023-03-13T05:39:34.827Z,98977.09
2023-03-13T05:42:03.337Z,98981.25
2023-03-13T05:44:31.785Z,98979.56
2023-03-13T05:47:00.652Z,98981.78
2023-03-13T05:49:31.209Z,98989.78
2023-03-13T05:51:59.638Z,98978.50
2023-03-13T05:54:28.111Z,98971.59
2023-03-13T05:56:56.540Z,98963.63
2023-03-13T05:59:25.038Z,98965.56
2023-03-13T06:01:53.497Z,98966.66
2023-03-13T06:04:22.397Z,98961.13
2023-03-13T06:06:52.341Z,98950.94
2023-03-13T06:09:21.301Z,98952.00
2023-03-13T06:11:49.784Z,98950.38
2023-03-13T06:14:18.227Z,98950.91
2023-03-13T06:16:46.987Z,98954.19
2023-03-13T06:19:15.440Z,98948.94
2023-03-13T06:21:44.255Z,98949.47
2023-03-13T06:24:14.095Z,98958.84
2023-03-13T06:26:42.630Z,98946.44
2023-03-13T06:29:11.367Z,98943.09
2023-03-13T06:31:39.933Z,98946.38
2023-03-13T06:34:09.521Z,98948.28
2023-03-13T06:36:38.188Z,98940.53
2023-03-13T06:39:06.881Z,98934.47
2023-03-13T06:41:36.840Z,98944.63
2023-03-13T06:44:06.004Z,98937.94
2023-03-13T06:46:34.637Z,98929.97
2023-03-13T06:49:05.830Z,98930.72
2023-03-13T06:51:34.972Z,98916.41
2023-03-13T06:54:03.879Z,98930.97
2023-03-13T06:56:32.370Z,98924.53
2023-03-13T06:59:02.254Z,98926.34
2023-03-13T07:01:30.896Z,98919.31
2023-03-13T07:03:59.429Z,98923.06
2023-03-13T07:06:28.397Z,98919.63
2023-03-13T07:08:57.010Z,98906.25
2023-03-13T07:11:26.038Z,98912.72
2023-03-13T07:14:10.116Z,98910.06
2023-03-13T07:16:45.838Z,98898.81
2023-03-13T07:19:15.254Z,98896.31
2023-03-13T07:21:44.277Z,98886.91
2023-03-13T07:24:12.930Z,98895.81
2023-03-13T07:26:51.210Z,98891.97
2023-03-13T07:29:22.865Z,98885.38
2023-03-13T07:31:52.701Z,98877.94
2023-03-13T07:34:21.167Z,98877.66
2023-03-13T07:36:49.611Z,98864.94
2023-03-13T07:39:18.067Z,98857.69
2023-03-13T07:41:46.881Z,98854.59
2023-03-13T07:44:15.347Z,98850.53
2023-03-13T07:46:44.180Z,98859.09
2023-03-13T07:49:14.053Z,98860.81
2023-03-13T07:51:44.401Z,98867.59
2023-03-13T07:54:13.163Z,98866.06
2023-03-13T07:56:41.931Z,98859.25
2023-03-13T07:59:10.513Z,98859.75
2023-03-13T08:01:39.018Z,98853.41
2023-03-13T08:04:07.715Z,98858.69
2023-03-13T08:06:37.578Z,98852.31
2023-03-13T08:09:06.807Z,98862.63
2023-03-13T08:11:35.488Z,98855.94
2023-03-13T08:14:03.981Z,98861.47
2023-03-13T08:16:36.049Z,98847.75
2023-03-13T08:19:06.399Z,98837.88
2023-03-13T08:21:38.435Z,98838.38
2023-03-13T08:24:10.725Z,98837.53
2023-03-13T08:26:41.674Z,98825.34
2023-03-13T08:29:13.534Z,98822.72
2023-03-13T08:31:47.653Z,98816.72
2023-03-13T08:34:17.500Z,98822.22
2023-03-13T08:36:47.825Z,98817.72
2023-03-13T08:39:18.510Z,98813.53
2023-03-13T08:41:47.130Z,98815.53
2023-03-13T08:44:18.005Z,98807.84
2023-03-13T08:46:49.124Z,98823.88
2023-03-13T08:49:18.491Z,98817.16
2023-03-13T08:51:48.370Z,98811.31
2023-03-13T08:54:16.890Z,98799.53
2023-03-13T08:56:45.388Z,98818.19
2023-03-13T08:59:15.572Z,98807.31
2023-03-13T09:01:44.095Z,98808.63
2023-03-13T09:04:12.701Z,98803.56
2023-03-13T09:06:41.408Z,98800.50
2023-03-13T09:09:12.205Z,98796.25
2023-03-13T09:11:41.587Z,98789.56
2023-03-13T09:14:12.018Z,98791.38
2023-03-13T09:16:40.492Z,98802.97
2023-03-13T09:19:09.016Z,98810.50
2023-03-13T09:21:37.969Z,98792.66
2023-03-13T09:24:07.214Z,98792.31
2023-03-13T09:26:37.164Z,98785.44
2023-03-13T09:29:05.688Z,98795.75
2023-03-13T09:31:35.461Z,98814.81
2023-03-13T09:34:05.266Z,98808.06
2023-03-13T09:36:33.961Z,98792.06
2023-03-13T09:39:02.473Z,98790.19
2023-03-13T09:41:41.479Z,98775.47
2023-03-13T09:44:19.586Z,98779.41
2023-03-13T09:47:00.484Z,98792.19
2023-03-13T09:49:35.385Z,98794.28
2023-03-13T09:52:17.189Z,98792.56
2023-03-13T09:54:51.922Z,98789.75
2023-03-13T09:57:31.925Z,98775.41
2023-03-13T10:00:07.547Z,98791.59
2023-03-13T10:02:38.155Z,98793.97
2023-03-13T10:05:19.542Z,98769.56
2023-03-13T10:07:48.363Z,98782.44
2023-03-13T10:10:19.299Z,98784.59
2023-03-13T10:12:53.946Z,98781.81
2023-03-13T10:15:35.702Z,98758.38
2023-03-13T10:18:18.209Z,98743.75
2023-03-13T10:20:50.704Z,98756.53
2023-03-13T10:23:28.716Z,98749.00
2023-03-13T10:25:57.194Z,98742.91
2023-03-13T10:28:27.528Z,98739.66
2023-03-13T10:31:03.550Z,98747.69
2023-03-13T10:33:35.785Z,98747.28
2023-03-13T10:36:09.358Z,98741.91
2023-03-13T10:38:49.850Z,98730.69
2023-03-13T10:41:28.145Z,98729.75
2023-03-13T10:44:04.626Z,98721.56
2023-03-13T10:46:36.595Z,98719.31
2023-03-13T10:49:14.447Z,98721.06
2023-03-13T10:51:49.599Z,98714.59
2023-03-13T10:54:25.519Z,98711.81
2023-03-13T10:57:10.512Z,98711.34
2023-03-13T10:59:47.152Z,98702.44
2023-03-13T11:02:32.953Z,98708.25
2023-03-13T11:05:02.016Z,98715.25
2023-03-13T11:07:34.076Z,98704.41
2023-03-13T11:10:17.984Z,98707.19
2023-03-13T11:12:48.304Z,98692.09
2023-03-13T11:15:24.667Z,98712.09
2023-03-13T11:18:00.470Z,98716.28
2023-03-13T11:20:33.422Z,98707.78
2023-03-13T11:23:16.555Z,98706.50
2023-03-13T11:25:58.697Z,98698.13
2023-03-13T11:28:51.153Z,98703.72
2023-03-13T11:31:29.707Z,98700.47
2023-03-13T11:34:06.904Z,98684.25
2023-03-13T11:36:40.100Z,98691.09
2023-03-13T11:39:38.545Z,98687.94
2023-03-13T11:42:24.947Z,98688.25
2023-03-13T11:45:06.982Z,98684.06
2023-03-13T11:47:52.584Z,98676.03
2023-03-13T11:50:36.521Z,98683.84
2023-03-13T11:53:44.853Z,98664.75
2023-03-13T11:56:21.929Z,98665.34
2023-03-13T11:59:06.098Z,98643.03
2023-03-13T12:01:41.078Z,98643.72
2023-03-13T12:04:19.597Z,98653.66
2023-03-13T12:06:53.537Z,98667.97
2023-03-13T12:09:30.145Z,98645.75
2023-03-13T12:12:04.747Z,98668.31
2023-03-13T12:14:38.909Z,98650.28
2023-03-13T12:17:13.192Z,98624.47
2023-03-13T12:19:51.525Z,98641.31
2023-03-13T12:22:26.483Z,98632.00
2023-03-13T12:25:05.035Z,98619.06
2023-03-13T12:27:40.752Z,98621.00
2023-03-13T12:30:25.657Z,98609.53
2023-03-13T12:33:03.194Z,98610.41
2023-03-13T12:35:34.377Z,98613.53
2023-03-13T12:38:14.064Z,98602.88
2023-03-13T12:40:50.670Z,98593.97
2023-03-13T12:43:24.757Z,98588.38
2023-03-13T12:46:20.528Z,98591.31
2023-03-13T12:49:23.462Z,98578.47
2023-03-13T12:52:32.653Z,98587.22
2023-03-13T12:56:00.686Z,98566.47
2023-03-13T12:58:40.946Z,98561.59
2023-03-13T13:01:17.009Z,98566.25
2023-03-13T13:03:56.490Z,98563.28
2023-03-13T13:06:25.441Z,98554.88
2023-03-13T13:09:16.332Z,98558.03
2023-03-13T13:11:50.898Z,98554.50
2023-03-13T13:15:12.380Z,98556.41
2023-03-13T13:18:17.606Z,98548.69
2023-03-13T13:20:49.647Z,98542.47
2023-03-13T13:23:34.090Z,98542.16
2023-03-13T13:26:52.325Z,98539.66
2023-03-13T13:29:57.951Z,98536.19
2023-03-13T13:32:45.834Z,98538.28
2023-03-13T13:35:28.062Z,98527.59
2023-03-13T13:38:36.974Z,98520.03
2023-03-13T13:41:28.574Z,98503.91
2023-03-13T13:44:30.961Z,98498.22
2023-03-13T13:47:02.154Z,98490.53
2023-03-13T13:49:55.724Z,98492.34
2023-03-13T13:52:40.151Z,98482.94
2023-03-13T13:55:44.258Z,98489.56
2023-03-13T13:58:22.148Z,98493.91
2023-03-13T14:00:56.633Z,98485.16
2023-03-13T14:03:27.814Z,98486.91
2023-03-13T14:06:01.372Z,98472.69
2023-03-13T14:08:34.257Z,98460.00
2023-03-13T14:11:20.878Z,98462.91
2023-03-13T14:14:11.678Z,98451.59
2023-03-13T14:16:44.242Z,98441.56
2023-03-13T14:19:30.148Z,98445.03
2023-03-13T14:22:03.587Z,98436.66
2023-03-13T14:24:32.220Z,98436.94
2023-03-13T14:27:01.309Z,98442.53
2023-03-13T14:29:29.842Z,98422.78
2023-03-13T14:32:01.098Z,98423.31
2023-03-13T14:34:32.678Z,98409.06
2023-03-13T14:37:17.747Z,98413.91
2023-03-13T14:39:48.880Z,98420.34
2023-03-13T14:42:19.780Z,98408.84
2023-03-13T14:44:50.498Z,98412.25
2023-03-13T14:47:30.601Z,98414.50
2023-03-13T14:50:01.207Z,98403.19
2023-03-13T14:52:32.461Z,98399.06
2023-03-13T14:55:04.913Z,98399.66
2023-03-13T14:57:35.088Z,98393.13
2023-03-13T15:00:37.259Z,98384.47
2023-03-13T15:03:25.771Z,98379.94
2023-03-13T15:06:16.723Z,98389.00
2023-03-13T15:08:47.474Z,98387.03
2023-03-13T15:11:32.234Z,98391.34
2023-03-13T15:14:00.892Z,98394.94
2023-03-13T15:16:30.669Z,98392.84
2023-03-13T15:19:00.583Z,98384.41
2023-03-13T15:21:32.505Z,98375.91
2023-03-13T15:24:03.722Z,98374.13
2023-03-13T15:26:32.309Z,98366.50
2023-03-13T15:29:00.864Z,98376.72
2023-03-13T15:31:31.646Z,98375.78
2023-03-13T15:34:03.192Z,98383.56
2023-03-13T15:36:33.001Z,98375.47
2023-03-13T15:39:01.443Z,98375.25
2023-03-13T15:41:29.997Z,98375.47
2023-03-13T15:43:58.488Z,98368.16
2023-03-13T15:46:28.773Z,98363.63
2023-03-13T15:48:57.399Z,98358.75
2023-03-13T15:51:27.892Z,98353.53
2023-03-13T15:53:56.388Z,98361.44
2023-03-13T15:56:25.436Z,98366.88
2023-03-13T15:58:54.052Z,98362.72
2023-03-13T16:01:23.524Z,98367.69
2023-03-13T16:03:52.416Z,98366.31
2023-03-13T16:06:31.223Z,98368.50
2023-03-13T16:09:02.749Z,98348.25
2023-03-13T16:11:31.601Z,98349.66
2023-03-13T16:14:00.533Z,98343.84
2023-03-13T16:16:31.868Z,98343.59
2023-03-13T16:19:04.260Z,98337.44
2023-03-13T16:21:35.142Z,98348.00
2023-03-13T16:24:05.527Z,98341.00
2023-03-13T16:26:34.100Z,98352.38
2023-03-13T16:29:02.768Z,98348.97
2023-03-13T16:31:33.640Z,98345.94
2023-03-13T16:34:03.552Z,98341.41
2023-03-13T16:36:34.325Z,98348.34
2023-03-13T16:39:08.459Z,98336.97
2023-03-13T16:41:37.480Z,98337.50
2023-03-13T16:44:06.514Z,98337.22
2023-03-13T16:46:39.907Z,98335.34
2023-03-13T16:51:40.611Z,98319.41
2023-03-13T16:54:12.163Z,98316.03
2023-03-13T16:56:43.454Z,98314.59
2023-03-13T16:59:15.097Z,98306.47
2023-03-13T17:01:44.239Z,98311.53
2023-03-13T17:04:13.719Z,98311.06
2023-03-13T17:06:44.899Z,98297.06
2023-03-13T17:09:18.178Z,98303.63
2023-03-13T17:11:46.973Z,98304.31
2023-03-13T17:14:17.591Z,98302.91
2023-03-13T17:16:47.593Z,98295.88
2023-03-13T17:19:17.003Z,98291.69
2023-03-13T17:21:45.792Z,98285.50
2023-03-13T17:24:15.653Z,98285.19
2023-03-13T17:26:44.924Z,98278.22
2023-03-13T17:29:19.615Z,98279.91
2023-03-13T17:31:48.309Z,98271.44
2023-03-13T17:34:17.636Z,98267.69
2023-03-13T17:36:48.898Z,98266.63
2023-03-13T17:39:19.220Z,98260.09
2023-03-13T17:41:48.670Z,98262.75
2023-03-13T17:44:17.560Z,98260.97
2023-03-13T17:46:48.473Z,98255.59
2023-03-13T17:49:20.473Z,98249.09
2023-03-13T17:51:51.578Z,98244.22
2023-03-13T17:54:22.797Z,98240.00
2023-03-13T17:56:52.647Z,98228.28
2023-03-13T17:59:22.040Z,98225.69
2023-03-13T18:01:51.949Z,98224.72
2023-03-13T18:04:22.036Z,98224.13
2023-03-13T18:06:52.213Z,98225.13
2023-03-13T18:09:24.220Z,98216.13
2023-03-13T18:11:53.898Z,98222.34
2023-03-13T18:14:24.103Z,98218.13
2023-03-13T18:16:57.497Z,98209.16
2023-03-13T18:19:28.725Z,98219.31
2023-03-13T18:21:59.270Z,98217.53
2023-03-13T18:24:31.196Z,98216.88
2023-03-13T18:27:01.696Z,98217.88
2023-03-13T18:29:31.814Z,98222.44
2023-03-13T18:32:02.078Z,98220.66
2023-03-13T18:34:32.060Z,98213.00
2023-03-13T18:37:04.289Z,98210.91
2023-03-13T18:39:37.015Z,98198.06
2023-03-13T18:42:11.117Z,98199.53
2023-03-13T18:44:41.601Z,98188.28
2023-03-13T18:47:16.440Z,98179.81
2023-03-13T18:49:47.569Z,98169.72
2023-03-13T18:52:18.120Z,98164.84
2023-03-13T18:54:49.780Z,98160.28
2023-03-13T18:57:20.910Z,98162.44
2023-03-13T18:59:51.791Z,98158.03
2023-03-13T19:02:22.572Z,98150.69
2023-03-13T19:04:53.328Z,98142.22
2023-03-13T19:07:28.424Z,98147.94
2023-03-13T19:10:02.165Z,98143.38
2023-03-13T19:12:33.056Z,98136.06
2023-03-13T19:15:03.606Z,98127.91
2023-03-13T19:17:33.498Z,98111.13
2023-03-13T19:20:06.274Z,98116.66
2023-03-13T19:22:36.570Z,98113.91
2023-03-13T19:25:11.748Z,98112.59
2023-03-13T19:27:42.917Z,98110.34
2023-03-13T19:30:22.281Z,98086.91
2023-03-13T19:32:53.367Z,98089.81
2023-03-13T19:35:23.614Z,98085.09
2023-03-13T19:37:56.965Z,98083.44
2023-03-13T19:40:30.132Z,98081.84
2023-03-13T19:43:00.718Z,98075.50
2023-03-13T19:45:31.441Z,98071.91
2023-03-13T19:48:03.436Z,98078.25
2023-03-13T19:50:33.002Z,98081.84
2023-03-13T19:53:03.478Z,98082.16
2023-03-13T19:55:36.745Z,98073.69
2023-03-13T19:58:10.637Z,98065.06
2023-03-13T20:00:41.358Z,98053.84
2023-03-13T20:03:12.186Z,98048.97
2023-03-13T20:05:43.948Z,98048.81
2023-03-13T20:08:14.324Z,98045.06
2023-03-13T20:10:47.773Z,98032.22
2023-03-13T20:13:21.421Z,98038.44
2023-03-13T20:15:50.738Z,98035.47
2023-03-13T20:18:21.532Z,98035.81
2023-03-13T20:20:52.213Z,98023.78
2023-03-13T20:23:21.779Z,98026.88
2023-03-13T20:25:53.478Z,98013.72
2023-03-13T20:28:24.175Z,98006.88
2023-03-13T20:30:57.516Z,98000.03
2023-03-13T20:33:27.610Z,97999.22
2023-03-13T20:36:00.863Z,97985.25
2023-03-13T20:38:33.167Z,97972.56
2023-03-13T20:41:05.344Z,97966.53
2023-03-13T20:43:37.572Z,97962.63
2023-03-13T20:46:09.477Z,97969.31
2023-03-13T20:48:41.699Z,97962.47
2023-03-13T20:51:13.054Z,97952.06
2023-03-13T20:53:44.646Z,97955.97
2023-03-13T20:56:16.819Z,97945.56
2023-03-13T20:58:46.936Z,97949.78
2023-03-13T21:01:18.400Z,97941.34
2023-03-13T21:03:49.373Z,97938.91
2023-03-13T21:06:21.916Z,97931.28
2023-03-13T21:08:52.693Z,97925.56
2023-03-13T21:11:25.689Z,97916.28
2023-03-13T21:13:55.664Z,97914.16
2023-03-13T21:16:24.829Z,97903.28
2023-03-13T21:18:54.096Z,97905.56
2023-03-13T21:21:23.272Z,97895.50
2023-03-13T21:23:53.288Z,97894.88
2023-03-13T21:26:24.307Z,97882.81
2023-03-13T21:28:54.276Z,97885.44
2023-03-13T21:31:25.055Z,97887.22
2023-03-13T21:33:53.648Z,97875.69
2023-03-13T21:36:24.492Z,97868.06
2023-03-13T21:38:53.759Z,97858.13
2023-03-13T21:41:24.536Z,97852.59
2023-03-13T21:43:53.172Z,97830.19
2023-03-13T21:46:22.898Z,97822.69
2023-03-13T21:48:51.504Z,97820.75
2023-03-13T21:51:20.298Z,97815.69
2023-03-13T21:53:48.736Z,97818.47
2023-03-13T21:56:17.431Z,97823.50
2023-03-13T21:58:47.350Z,97823.03
2023-03-13T22:01:16.765Z,97817.34
2023-03-13T22:03:45.426Z,97818.81
2023-03-13T22:06:16.495Z,97813.94
2023-03-13T22:08:45.305Z,97818.66
2023-03-13T22:11:13.750Z,97794.94
2023-03-13T22:13:42.162Z,97792.50
2023-03-13T22:16:12.443Z,97790.06
2023-03-13T22:18:43.224Z,97782.13
2023-03-13T22:21:11.784Z,97776.25
2023-03-13T22:23:40.499Z,97774.63
2023-03-13T22:26:09.173Z,97754.81
2023-03-13T22:28:39.171Z,97757.91
2023-03-13T22:31:09.263Z,97754.97
2023-03-13T22:33:39.398Z,97736.31
2023-03-13T22:36:09.949Z,97717.97
2023-03-13T22:38:39.955Z,97706.28
2023-03-13T22:41:12.849Z,97713.59
2023-03-13T22:43:41.333Z,97711.81
2023-03-13T22:46:11.209Z,97706.47
2023-03-13T22:48:42.401Z,97714.91
2023-03-13T22:51:13.280Z,97707.59
2023-03-13T22:53:43.167Z,97695.59
2023-03-13T22:56:13.063Z,97683.13
2023-03-13T22:58:42.720Z,97670.75
2023-03-13T23:01:13.894Z,97666.22
2023-03-13T23:03:44.643Z,97666.03
2023-03-13T23:06:18.475Z,97646.56
2023-03-13T23:08:47.269Z,97639.75
2023-03-13T23:11:15.970Z,97644.31
2023-03-13T23:13:44.492Z,97645.78
2023-03-13T23:16:14.804Z,97642.03
2023-03-13T23:18:44.712Z,97639.13
2023-03-13T23:21:15.374Z,97625.97
2023-03-13T23:23:44.410Z,97621.59
2023-03-13T23:26:16.553Z,97617.22
2023-03-13T23:28:45.090Z,97623.06
2023-03-13T23:31:16.288Z,97630.03
2023-03-13T23:33:47.085Z,97635.06
2023-03-13T23:36:18.464Z,97633.13
2023-03-13T23:38:51.551Z,97611.38
2023-03-13T23:41:23.275Z,97609.44
2023-03-13T23:43:51.782Z,97592.88
2023-03-13T23:46:23.365Z,97590.47
2023-03-13T23:48:57.357Z,97587.22
2023-03-13T23:51:27.303Z,97591.94
2023-03-13T23:53:55.809Z,97584.28
2023-03-13T23:56:25.405Z,97581.69
2023-03-13T23:58:55.092Z,97575.22
